Archival Weather

Sharurah

Sharurah, Saudi Arabia (OESH)

Report from: Thursday, December 7, 2023 2:00 AM +03
Current time: Thursday, February 22, 2024 6:24 PM +03

Current weather – Weather history – Daily summaries
Weather forecast

Temperature18.0°C (64.4°F)
Dew point7.0°C (44.6°F)
Winds 8 kts (4.1 m/s, 9.2 mph) East (80°)
Clouds Sky clear
Altimeter30.06 in.Hg (1018 mB)
Relative humidity49 %
Density altitude338 ft. (103 m)
Remarks Ceiling and visibility OK
No significant changes expected in the next two hours
Flight conditions Visual Meteorological Conditions
Raw dataOESH 062300Z 08008KT CAVOK 18/07 Q1018 NOSIG
An error has occurred. This application may no longer respond until reloaded. Reload 🗙